Terminal Aerodrome Forecast
Issued by NWS

Home | Current Version | Previous Version | Text Only | Print | Product List | Glossary On
Versions: 1 2 3 4 5 6 7 8 9 10 11 12 13 14 15 16 17 18 19 20 21 22 23
000
FTUS45 KGJT 231913 AAA
TAFASE
TAF AMD
KASE 231913Z 2319/2418 34010G15KT P6SM BKN100
     FM232000 36010G18KT P6SM VCSH SCT050 BKN090
     FM232300 33010KT P6SM VCSH BKN050
     FM240400 22005KT P6SM FEW090=

USA.gov is the U.S. government's official web portal to all federal, state and local government web resources and services.